createdAt,value
2018-04-18T18:54:21.530Z,1.60
2018-04-18T18:56:50.395Z,3.40
2018-04-18T18:59:16.591Z,3.30
2018-04-18T19:01:42.805Z,3.20
2018-04-18T19:04:08.993Z,3.90
2018-04-18T19:06:35.262Z,4.50
2018-04-18T19:09:14.558Z,4.20
2018-04-18T19:11:41.571Z,4.50
2018-04-18T19:14:07.870Z,4.20
2018-04-18T19:16:34.687Z,5.10
2018-04-18T19:19:01.262Z,5.60
2018-04-18T19:21:27.862Z,5.70
2018-04-18T19:23:55.526Z,7.70
2018-04-18T19:26:23.537Z,8.20
2018-04-18T19:28:51.363Z,8.80
2018-04-18T19:31:19.136Z,8.90
2018-04-18T19:33:45.963Z,8.90
2018-04-18T19:36:13.104Z,8.40
2018-04-18T19:38:40.840Z,8.90
2018-04-18T19:41:08.200Z,8.90
2018-04-18T19:43:35.585Z,8.80
2018-04-18T19:46:02.828Z,9.10
2018-04-18T19:48:29.668Z,9.70
2018-04-18T19:50:57.966Z,10.50
2018-04-18T19:53:24.817Z,10.50
2018-04-18T19:55:51.907Z,10.40
2018-04-18T19:58:18.547Z,10.50
2018-04-18T20:00:45.545Z,11.00
2018-04-18T20:03:12.595Z,11.40
2018-04-18T20:05:39.715Z,11.70
2018-04-18T20:08:06.436Z,11.80
2018-04-18T20:10:34.844Z,12.10
2018-04-18T20:13:02.947Z,12.20
2018-04-18T20:15:30.164Z,12.00
2018-04-18T20:17:56.781Z,12.40
2018-04-18T20:20:24.839Z,12.60
2018-04-18T20:22:51.760Z,12.40
2018-04-18T20:25:29.928Z,12.70
2018-04-18T20:27:56.892Z,12.70
2018-04-18T20:30:23.837Z,12.70
2018-04-18T20:32:50.670Z,12.70
2018-04-18T20:35:20.146Z,13.40
2018-04-18T20:37:47.826Z,13.50
2018-04-18T20:40:14.764Z,13.40
2018-04-18T20:42:41.903Z,13.60
2018-04-18T20:45:09.172Z,13.80
2018-04-18T20:47:36.476Z,13.50
2018-04-18T20:50:03.290Z,13.90
2018-04-18T20:52:31.077Z,14.40
2018-04-18T20:54:58.219Z,14.30
2018-04-18T20:57:25.278Z,14.40
2018-04-18T20:59:52.199Z,14.60
2018-04-18T21:02:19.141Z,15.10
2018-04-18T21:04:46.700Z,14.80
2018-04-18T21:07:13.631Z,15.10
2018-04-18T21:09:51.523Z,16.20
2018-04-18T21:12:19.418Z,16.40
2018-04-18T21:14:45.652Z,16.20
2018-04-18T21:17:12.677Z,16.90
2018-04-18T21:19:38.886Z,16.60
2018-04-18T21:22:05.095Z,16.70
2018-04-18T21:24:31.336Z,17.10
2018-04-18T21:26:57.831Z,17.50
2018-04-18T21:29:25.019Z,17.40
2018-04-18T21:31:51.313Z,17.70
2018-04-18T21:34:17.710Z,17.70
2018-04-18T21:36:43.925Z,18.20
2018-04-18T21:39:10.134Z,18.40
2018-04-18T21:41:36.390Z,18.30
2018-04-18T21:44:02.591Z,18.80
2018-04-18T21:46:28.815Z,18.80
2018-04-18T21:48:55.082Z,19.00
2018-04-18T21:51:21.268Z,19.00
2018-04-18T21:53:47.497Z,19.00
2018-04-18T21:56:13.695Z,19.20
2018-04-18T21:58:40.701Z,20.30
2018-04-18T22:01:06.866Z,20.20
2018-04-18T22:03:33.820Z,20.70
2018-04-18T22:06:00.755Z,20.80
2018-04-18T22:08:27.898Z,21.10
2018-04-18T22:10:54.847Z,21.40
2018-04-18T22:13:21.762Z,21.40
2018-04-18T22:15:47.943Z,21.40
2018-04-18T22:18:14.118Z,21.50
2018-04-18T22:20:40.378Z,21.60
2018-04-18T22:23:07.332Z,22.60
2018-04-18T22:25:33.678Z,22.60
2018-04-18T22:27:59.875Z,23.50
2018-04-18T22:30:26.827Z,23.20
2018-04-18T22:32:53.798Z,23.30
2018-04-18T22:35:19.978Z,23.10
2018-04-18T22:37:46.154Z,23.40
2018-04-18T22:40:12.365Z,24.00
2018-04-18T22:42:39.294Z,24.90
2018-04-18T22:45:05.481Z,24.70
2018-04-18T22:47:31.655Z,25.10
2018-04-18T22:49:57.847Z,24.90
2018-04-18T22:52:24.038Z,24.60
2018-04-18T22:54:50.222Z,25.00
2018-04-18T22:57:16.458Z,24.80
2018-04-18T22:59:42.654Z,25.60
2018-04-18T23:02:08.854Z,25.60
2018-04-18T23:04:35.023Z,25.60
2018-04-18T23:07:01.947Z,25.30
2018-04-18T23:09:28.152Z,25.30
2018-04-18T23:11:55.095Z,25.60
2018-04-18T23:14:22.031Z,25.90
2018-04-18T23:16:48.974Z,26.00
2018-04-18T23:19:15.915Z,26.60
2018-04-18T23:21:42.867Z,26.50
2018-04-18T23:24:09.811Z,26.50
2018-04-18T23:26:36.730Z,25.90
2018-04-18T23:29:02.933Z,25.90
2018-04-18T23:31:29.135Z,26.00
2018-04-18T23:33:55.355Z,26.30
2018-04-18T23:36:21.531Z,26.90
2018-04-18T23:38:47.753Z,26.70
2018-04-18T23:41:13.956Z,26.80
2018-04-18T23:43:40.160Z,26.60
2018-04-18T23:46:07.094Z,26.80
2018-04-18T23:48:34.027Z,26.20
2018-04-18T23:51:00.215Z,26.10
2018-04-18T23:53:27.163Z,26.70
2018-04-18T23:55:53.360Z,26.70
2018-04-18T23:58:20.323Z,27.20
